createdAt,value
2018-12-16T00:00:02.961Z,1018.45
2018-12-16T00:01:02.939Z,1018.38
2018-12-16T00:02:02.918Z,1018.41
2018-12-16T00:03:02.892Z,1018.32
2018-12-16T00:04:02.870Z,1018.34
2018-12-16T00:05:02.844Z,1018.32
2018-12-16T00:06:02.818Z,1018.34
2018-12-16T00:07:02.803Z,1018.33
2018-12-16T00:08:02.771Z,1018.36
2018-12-16T00:09:02.752Z,1018.32
2018-12-16T00:10:02.789Z,1018.32
2018-12-16T00:11:02.702Z,1018.29
2018-12-16T00:12:02.679Z,1018.30
2018-12-16T00:13:02.654Z,1018.24
2018-12-16T00:14:02.636Z,1018.24
2018-12-16T00:15:02.608Z,1018.26
2018-12-16T00:16:02.581Z,1018.23
2018-12-16T00:17:02.558Z,1018.19
2018-12-16T00:18:02.531Z,1018.14
2018-12-16T00:19:02.512Z,1018.16
2018-12-16T00:20:02.486Z,1018.15
2018-12-16T00:21:02.462Z,1018.15
2018-12-16T00:22:02.440Z,1018.11
2018-12-16T00:23:02.418Z,1018.11
2018-12-16T00:24:02.397Z,1018.13
2018-12-16T00:25:02.369Z,1018.08
2018-12-16T00:26:02.343Z,1018.03
2018-12-16T00:27:02.320Z,1018.05
2018-12-16T00:28:02.295Z,1018.06
2018-12-16T00:29:02.271Z,1018.06
2018-12-16T00:30:02.249Z,1018.09
2018-12-16T00:31:02.223Z,1018.11
2018-12-16T00:32:02.238Z,1018.09
2018-12-16T00:33:02.174Z,1018.19
2018-12-16T00:34:02.152Z,1018.19
2018-12-16T00:35:02.129Z,1018.16
2018-12-16T00:36:02.110Z,1018.19
2018-12-16T00:37:02.085Z,1018.15
2018-12-16T00:38:02.061Z,1018.13
2018-12-16T00:39:02.036Z,1018.17
2018-12-16T00:40:02.013Z,1018.12
2018-12-16T00:41:01.987Z,1018.13
2018-12-16T00:42:02.013Z,1018.10
2018-12-16T00:43:01.938Z,1018.10
2018-12-16T00:44:01.913Z,1018.05
2018-12-16T00:45:01.893Z,1018.03
2018-12-16T00:46:01.866Z,1018.03
2018-12-16T00:47:01.850Z,1018.05
2018-12-16T00:48:01.818Z,1018.02
2018-12-16T00:49:01.798Z,1017.99
2018-12-16T00:50:01.774Z,1018.02
2018-12-16T00:51:01.750Z,1018.01
2018-12-16T00:52:01.724Z,1017.95
2018-12-16T00:53:01.702Z,1017.95
2018-12-16T00:54:01.678Z,1017.92
2018-12-16T00:55:01.661Z,1017.92
2018-12-16T00:56:01.626Z,1017.93
2018-12-16T00:57:01.602Z,1017.92
2018-12-16T00:58:01.587Z,1017.86
2018-12-16T00:59:01.556Z,1017.85
2018-12-16T01:00:01.531Z,1017.81
2018-12-16T01:01:01.508Z,1017.80
2018-12-16T01:02:01.482Z,1017.78
2018-12-16T01:03:01.459Z,1017.74
2018-12-16T01:04:01.437Z,1017.71
2018-12-16T01:05:01.419Z,1017.75
2018-12-16T01:06:01.390Z,1017.69
2018-12-16T01:07:01.364Z,1017.72
2018-12-16T01:08:01.341Z,1017.69
2018-12-16T01:09:01.316Z,1017.72
2018-12-16T01:10:01.292Z,1017.73
2018-12-16T01:11:01.268Z,1017.71
2018-12-16T01:12:01.245Z,1017.76
2018-12-16T01:13:01.223Z,1017.72
2018-12-16T01:14:01.198Z,1017.62
2018-12-16T01:15:01.176Z,1017.63
2018-12-16T01:16:01.149Z,1017.62
2018-12-16T01:17:01.129Z,1017.60
2018-12-16T01:18:01.100Z,1017.61
2018-12-16T01:19:01.078Z,1017.57
2018-12-16T01:20:01.060Z,1017.57
2018-12-16T01:21:01.031Z,1017.57
2018-12-16T01:22:01.005Z,1017.60
2018-12-16T01:23:00.983Z,1017.58
2018-12-16T01:24:00.956Z,1017.57
2018-12-16T01:25:00.929Z,1017.56
2018-12-16T01:26:00.910Z,1017.55
2018-12-16T01:27:00.885Z,1017.54
2018-12-16T01:28:00.864Z,1017.50
2018-12-16T01:29:00.837Z,1017.48
2018-12-16T01:30:00.817Z,1017.46
2018-12-16T01:31:00.786Z,1017.45
2018-12-16T01:32:00.767Z,1017.41
2018-12-16T01:33:00.744Z,1017.37
2018-12-16T01:34:00.727Z,1017.36
2018-12-16T01:35:00.700Z,1017.40
2018-12-16T01:36:00.669Z,1017.37
2018-12-16T01:37:00.646Z,1017.36
2018-12-16T01:38:00.619Z,1017.38
2018-12-16T01:39:00.601Z,1017.35
2018-12-16T01:40:00.575Z,1017.31
2018-12-16T01:41:00.554Z,1017.26
2018-12-16T01:42:00.530Z,1017.22
2018-12-16T01:43:00.501Z,1017.19
2018-12-16T01:44:00.475Z,1017.22
2018-12-16T01:45:00.453Z,1017.15
2018-12-16T01:46:00.430Z,1017.19
2018-12-16T01:47:00.403Z,1017.19
2018-12-16T01:48:00.381Z,1017.15
2018-12-16T01:49:00.357Z,1017.11
2018-12-16T01:50:00.337Z,1017.11
2018-12-16T01:51:00.309Z,1017.10
2018-12-16T01:52:00.288Z,1017.10
2018-12-16T01:53:00.259Z,1017.05
2018-12-16T01:54:00.237Z,1017.07
2018-12-16T01:55:00.211Z,1017.04
2018-12-16T01:56:00.197Z,1017.08
2018-12-16T01:57:00.166Z,1017.08
2018-12-16T01:58:00.143Z,1017.09
2018-12-16T01:59:00.117Z,1017.05
2018-12-16T02:00:00.092Z,1017.03
2018-12-16T02:01:00.071Z,1017.06
2018-12-16T02:02:00.047Z,1016.99
2018-12-16T02:03:00.071Z,1016.96
2018-12-16T02:04:00.001Z,1016.91
2018-12-16T02:04:59.983Z,1016.86
2018-12-16T02:05:59.955Z,1016.85
2018-12-16T02:06:59.926Z,1016.85
2018-12-16T02:07:59.904Z,1016.82
2018-12-16T02:08:59.877Z,1016.75
2018-12-16T02:09:59.850Z,1016.77
2018-12-16T02:10:59.826Z,1016.75
2018-12-16T02:11:59.806Z,1016.75
2018-12-16T02:12:59.780Z,1016.77
2018-12-16T02:13:59.758Z,1016.78
2018-12-16T02:14:59.735Z,1016.74
2018-12-16T02:15:59.708Z,1016.72
2018-12-16T02:16:59.681Z,1016.74
2018-12-16T02:17:59.663Z,1016.69
2018-12-16T02:18:59.636Z,1016.69
2018-12-16T02:19:59.613Z,1016.61
2018-12-16T02:20:59.590Z,1016.64
2018-12-16T02:21:59.568Z,1016.65
2018-12-16T02:22:59.543Z,1016.64
2018-12-16T02:23:59.521Z,1016.63
2018-12-16T02:24:59.494Z,1016.61
2018-12-16T02:25:59.469Z,1016.62
2018-12-16T02:26:59.442Z,1016.63
2018-12-16T02:27:59.420Z,1016.57
2018-12-16T02:28:59.400Z,1016.60
2018-12-16T02:29:59.373Z,1016.59
2018-12-16T02:30:59.358Z,1016.57
2018-12-16T02:31:59.325Z,1016.59
2018-12-16T02:32:59.298Z,1016.55
2018-12-16T02:33:59.274Z,1016.54
2018-12-16T02:34:59.254Z,1016.51
2018-12-16T02:35:59.227Z,1016.46
2018-12-16T02:36:59.205Z,1016.46
2018-12-16T02:37:59.182Z,1016.45
2018-12-16T02:38:59.154Z,1016.45
2018-12-16T02:39:59.128Z,1016.40
2018-12-16T02:40:59.108Z,1016.38
2018-12-16T02:41:59.085Z,1016.40
2018-12-16T02:42:59.060Z,1016.40
2018-12-16T02:43:59.033Z,1016.44
2018-12-16T02:44:59.010Z,1016.38
2018-12-16T02:45:58.988Z,1016.38
2018-12-16T02:46:58.966Z,1016.41
2018-12-16T02:47:58.938Z,1016.38
2018-12-16T02:48:58.916Z,1016.41
2018-12-16T02:49:58.894Z,1016.35
2018-12-16T02:50:58.869Z,1016.40
2018-12-16T02:51:58.846Z,1016.42
2018-12-16T02:53:04.625Z,1016.37
2018-12-16T02:53:58.804Z,1016.38
2018-12-16T02:54:58.776Z,1016.37
2018-12-16T02:55:58.744Z,1016.35
2018-12-16T02:56:58.725Z,1016.42
2018-12-16T02:57:58.704Z,1016.44
2018-12-16T02:58:58.676Z,1016.43
2018-12-16T02:59:58.656Z,1016.42
2018-12-16T03:00:58.630Z,1016.37
2018-12-16T03:01:58.604Z,1016.35
2018-12-16T03:02:58.578Z,1016.31
2018-12-16T03:03:58.562Z,1016.33
2018-12-16T03:04:58.732Z,1016.30
2018-12-16T03:05:58.513Z,1016.37
2018-12-16T03:06:58.485Z,1016.35
2018-12-16T03:07:58.511Z,1016.35
2018-12-16T03:08:58.453Z,1016.31
2018-12-16T03:09:58.516Z,1016.32
2018-12-16T03:10:58.388Z,1016.28
2018-12-16T03:11:58.368Z,1016.27
2018-12-16T03:12:58.338Z,1016.23
2018-12-16T03:13:58.316Z,1016.24
2018-12-16T03:14:58.292Z,1016.22
2018-12-16T03:15:58.266Z,1016.21
2018-12-16T03:16:58.249Z,1016.19
2018-12-16T03:17:58.222Z,1016.17
2018-12-16T03:18:58.196Z,1016.16
2018-12-16T03:19:58.171Z,1016.09
2018-12-16T03:20:58.148Z,1016.04
2018-12-16T03:21:58.125Z,1016.08
2018-12-16T03:22:58.101Z,1016.08
2018-12-16T03:23:58.078Z,1016.07
2018-12-16T03:24:58.046Z,1016.12
2018-12-16T03:25:58.027Z,1016.14
2018-12-16T03:26:58.008Z,1016.10
2018-12-16T03:27:57.980Z,1016.05
2018-12-16T03:28:57.956Z,1015.98
2018-12-16T03:29:57.942Z,1015.94
2018-12-16T03:30:57.909Z,1015.87
2018-12-16T03:31:57.882Z,1015.89
2018-12-16T03:32:57.859Z,1015.97
2018-12-16T03:33:57.834Z,1015.93
2018-12-16T03:34:57.814Z,1015.87
2018-12-16T03:35:57.792Z,1015.89
2018-12-16T03:36:57.766Z,1015.85
2018-12-16T03:37:57.744Z,1015.84
2018-12-16T03:38:57.719Z,1015.87
2018-12-16T03:39:57.695Z,1015.86
2018-12-16T03:40:57.667Z,1015.88
2018-12-16T03:41:57.645Z,1015.83
2018-12-16T03:42:57.624Z,1015.87
2018-12-16T03:43:57.593Z,1015.87
2018-12-16T03:44:57.592Z,1015.83
2018-12-16T03:45:57.544Z,1015.81
2018-12-16T03:46:57.520Z,1015.77
2018-12-16T03:47:57.498Z,1015.80
2018-12-16T03:48:57.482Z,1015.76
2018-12-16T03:49:57.449Z,1015.76
2018-12-16T03:50:57.426Z,1015.78
2018-12-16T03:51:57.403Z,1015.75
2018-12-16T03:52:57.382Z,1015.78
2018-12-16T03:53:57.359Z,1015.81
2018-12-16T03:54:57.332Z,1015.79
2018-12-16T03:55:57.309Z,1015.76
2018-12-16T03:56:57.284Z,1015.77
2018-12-16T03:57:57.258Z,1015.76
2018-12-16T03:58:57.239Z,1015.77
2018-12-16T03:59:57.210Z,1015.77
2018-12-16T04:00:57.185Z,1015.74
2018-12-16T04:01:57.163Z,1015.76
2018-12-16T04:02:57.135Z,1015.79
2018-12-16T04:03:57.115Z,1015.75
2018-12-16T04:04:57.097Z,1015.73
2018-12-16T04:05:57.069Z,1015.75
2018-12-16T04:06:57.044Z,1015.74
2018-12-16T04:07:57.016Z,1015.74
2018-12-16T04:08:57.000Z,1015.68
2018-12-16T04:09:57.054Z,1015.65
2018-12-16T04:10:56.944Z,1015.66
2018-12-16T04:11:56.924Z,1015.63
2018-12-16T04:12:56.902Z,1015.65
2018-12-16T04:13:56.871Z,1015.67
2018-12-16T04:14:56.853Z,1015.66
2018-12-16T04:15:56.827Z,1015.67
2018-12-16T04:16:56.798Z,1015.66
2018-12-16T04:17:56.783Z,1015.66
2018-12-16T04:18:56.753Z,1015.63
2018-12-16T04:19:56.728Z,1015.59
2018-12-16T04:20:56.707Z,1015.59
2018-12-16T04:21:56.679Z,1015.54
2018-12-16T04:22:56.660Z,1015.54
2018-12-16T04:23:56.633Z,1015.48
2018-12-16T04:24:56.611Z,1015.52
2018-12-16T04:25:56.599Z,1015.51
2018-12-16T04:26:56.561Z,1015.46
2018-12-16T04:27:56.529Z,1015.44
2018-12-16T04:28:56.523Z,1015.40
2018-12-16T04:29:56.490Z,1015.41
2018-12-16T04:30:56.462Z,1015.40
2018-12-16T04:31:56.445Z,1015.32
2018-12-16T04:32:56.413Z,1015.34
2018-12-16T04:33:56.397Z,1015.28
2018-12-16T04:34:56.367Z,1015.27
2018-12-16T04:35:56.352Z,1015.19
2018-12-16T04:36:56.324Z,1015.22
2018-12-16T04:37:56.296Z,1015.17
2018-12-16T04:38:56.277Z,1015.14
2018-12-16T04:39:56.248Z,1015.13
2018-12-16T04:40:56.226Z,1015.11
2018-12-16T04:41:56.203Z,1015.12
2018-12-16T04:42:56.184Z,1015.09
2018-12-16T04:43:56.153Z,1015.09
2018-12-16T04:44:56.127Z,1015.07
2018-12-16T04:45:56.190Z,1015.02
2018-12-16T04:46:56.080Z,1015.00
2018-12-16T04:47:56.068Z,1015.04
2018-12-16T04:48:56.032Z,1015.01
2018-12-16T04:49:56.012Z,1014.98
2018-12-16T04:50:55.987Z,1014.98
2018-12-16T04:51:55.960Z,1015.01
2018-12-16T04:52:55.938Z,1014.94
2018-12-16T04:53:55.911Z,1014.97
2018-12-16T04:54:55.896Z,1014.95
2018-12-16T04:55:55.867Z,1014.94
2018-12-16T04:56:55.837Z,1014.90
2018-12-16T04:57:55.818Z,1014.91
2018-12-16T04:58:55.793Z,1014.85
2018-12-16T04:59:55.769Z,1014.88
2018-12-16T05:00:55.743Z,1014.87
2018-12-16T05:01:55.717Z,1014.82
2018-12-16T05:02:55.696Z,1014.78
2018-12-16T05:03:55.669Z,1014.73
2018-12-16T05:04:55.654Z,1014.79
2018-12-16T05:05:55.624Z,1014.80
2018-12-16T05:06:55.599Z,1014.80
2018-12-16T05:07:55.573Z,1014.84
2018-12-16T05:08:55.556Z,1014.79
2018-12-16T05:09:55.525Z,1014.84
2018-12-16T05:10:55.502Z,1014.79
2018-12-16T05:11:55.481Z,1014.85
2018-12-16T05:12:55.453Z,1014.83
2018-12-16T05:13:55.431Z,1014.78
2018-12-16T05:14:55.409Z,1014.81
2018-12-16T05:15:55.389Z,1014.79
2018-12-16T05:16:55.362Z,1014.77
2018-12-16T05:17:55.338Z,1014.79
2018-12-16T05:18:55.312Z,1014.79
2018-12-16T05:19:55.356Z,1014.73
2018-12-16T05:20:55.266Z,1014.68
2018-12-16T05:21:55.241Z,1014.73
2018-12-16T05:22:55.217Z,1014.66
2018-12-16T05:23:55.189Z,1014.71
2018-12-16T05:24:55.167Z,1014.70
2018-12-16T05:25:55.152Z,1014.65
2018-12-16T05:26:55.118Z,1014.62
2018-12-16T05:27:55.097Z,1014.61
2018-12-16T05:28:55.071Z,1014.57
2018-12-16T05:29:55.046Z,1014.49
2018-12-16T05:30:55.027Z,1014.53
2018-12-16T05:31:54.999Z,1014.48
2018-12-16T05:32:54.976Z,1014.47
2018-12-16T05:33:54.951Z,1014.45
2018-12-16T05:34:54.924Z,1014.47
2018-12-16T05:35:54.905Z,1014.41
2018-12-16T05:36:54.876Z,1014.44
2018-12-16T05:37:54.854Z,1014.44
2018-12-16T05:38:54.838Z,1014.38
2018-12-16T05:39:54.808Z,1014.41
2018-12-16T05:40:54.786Z,1014.36
2018-12-16T05:41:54.762Z,1014.36
2018-12-16T05:42:54.737Z,1014.28
2018-12-16T05:43:54.711Z,1014.28
2018-12-16T05:44:54.690Z,1014.22
2018-12-16T05:45:54.667Z,1014.22
2018-12-16T05:46:54.640Z,1014.23
2018-12-16T05:47:54.613Z,1014.20
2018-12-16T05:48:54.594Z,1014.20
2018-12-16T05:49:54.567Z,1014.20
2018-12-16T05:50:54.544Z,1014.16
2018-12-16T05:51:54.518Z,1014.17
2018-12-16T05:52:54.494Z,1014.13
2018-12-16T05:53:54.471Z,1014.07
2018-12-16T05:54:54.444Z,1014.08
2018-12-16T05:55:54.423Z,1014.12
2018-12-16T05:56:54.400Z,1014.06
2018-12-16T05:57:54.373Z,1014.12
2018-12-16T05:58:54.349Z,1014.14
2018-12-16T05:59:54.325Z,1014.16
2018-12-16T06:00:54.298Z,1014.11
2018-12-16T06:01:54.277Z,1014.12
2018-12-16T06:02:54.254Z,1014.09
2018-12-16T06:03:54.230Z,1014.09
2018-12-16T06:04:54.210Z,1014.07
2018-12-16T06:05:54.182Z,1014.16
2018-12-16T06:06:54.159Z,1014.11
2018-12-16T06:07:54.132Z,1014.09
2018-12-16T06:08:54.106Z,1014.07
2018-12-16T06:09:54.084Z,1014.09
2018-12-16T06:10:54.059Z,1014.09
2018-12-16T06:11:54.034Z,1014.12
2018-12-16T06:12:54.012Z,1014.11
2018-12-16T06:13:53.994Z,1014.10
2018-12-16T06:14:53.969Z,1014.11
2018-12-16T06:15:53.941Z,1014.04
2018-12-16T06:16:53.915Z,1014.05
2018-12-16T06:17:53.892Z,1014.02
2018-12-16T06:18:53.868Z,1014.03
2018-12-16T06:19:53.846Z,1013.98
2018-12-16T06:20:53.821Z,1014.03
2018-12-16T06:21:53.797Z,1013.95
2018-12-16T06:22:53.771Z,1013.96
2018-12-16T06:23:55.731Z,1013.93
2018-12-16T06:24:53.722Z,1013.99
2018-12-16T06:25:53.696Z,1013.96
2018-12-16T06:26:53.676Z,1013.97
2018-12-16T06:27:53.649Z,1013.96
2018-12-16T06:28:53.627Z,1013.89
2018-12-16T06:29:53.603Z,1013.90
2018-12-16T06:30:53.581Z,1013.92
2018-12-16T06:31:53.561Z,1013.83
2018-12-16T06:32:53.530Z,1013.88
2018-12-16T06:33:53.503Z,1013.83
2018-12-16T06:34:53.481Z,1013.87
2018-12-16T06:35:53.461Z,1013.85
2018-12-16T06:36:53.435Z,1013.85
2018-12-16T06:37:53.409Z,1013.82
2018-12-16T06:38:53.391Z,1013.78
2018-12-16T06:39:53.363Z,1013.78
2018-12-16T06:40:53.335Z,1013.75
2018-12-16T06:41:53.315Z,1013.82
2018-12-16T06:42:53.294Z,1013.79
2018-12-16T06:43:53.268Z,1013.84
2018-12-16T06:44:53.241Z,1013.78
2018-12-16T06:45:53.215Z,1013.79
2018-12-16T06:46:53.193Z,1013.83
2018-12-16T06:47:53.171Z,1013.80
2018-12-16T06:48:53.155Z,1013.79
2018-12-16T06:49:53.123Z,1013.80
2018-12-16T06:50:53.103Z,1013.80
2018-12-16T06:51:53.072Z,1013.79
2018-12-16T06:52:53.051Z,1013.75
2018-12-16T06:53:53.027Z,1013.80
2018-12-16T06:54:53.001Z,1013.81
2018-12-16T06:55:52.973Z,1013.75
2018-12-16T06:56:52.950Z,1013.70
2018-12-16T06:57:52.932Z,1013.69
2018-12-16T06:58:52.903Z,1013.66
2018-12-16T06:59:52.879Z,1013.59
2018-12-16T07:00:52.861Z,1013.57
2018-12-16T07:01:52.833Z,1013.58
2018-12-16T07:02:52.806Z,1013.55
2018-12-16T07:03:52.782Z,1013.59
2018-12-16T07:04:52.760Z,1013.55
2018-12-16T07:05:52.736Z,1013.51
2018-12-16T07:06:53.243Z,1013.51
2018-12-16T07:07:52.705Z,1013.50
2018-12-16T07:08:52.665Z,1013.51
2018-12-16T07:09:52.638Z,1013.44
2018-12-16T07:10:52.613Z,1013.44
2018-12-16T07:11:52.594Z,1013.43
2018-12-16T07:12:52.567Z,1013.43
2018-12-16T07:13:52.542Z,1013.41
2018-12-16T07:14:52.519Z,1013.39
2018-12-16T07:15:52.511Z,1013.34
2018-12-16T07:16:52.470Z,1013.37
2018-12-16T07:17:52.446Z,1013.38
2018-12-16T07:18:52.425Z,1013.41
2018-12-16T07:19:52.404Z,1013.37
2018-12-16T07:20:52.378Z,1013.40
2018-12-16T07:21:52.353Z,1013.45
2018-12-16T07:22:52.343Z,1013.54
2018-12-16T07:23:52.314Z,1013.55
2018-12-16T07:24:52.278Z,1013.57
2018-12-16T07:25:52.289Z,1013.57
2018-12-16T07:26:52.248Z,1013.59
2018-12-16T07:27:52.202Z,1013.64
2018-12-16T07:28:52.187Z,1013.68
2018-12-16T07:29:52.162Z,1013.80
2018-12-16T07:30:52.144Z,1013.76
2018-12-16T07:31:52.118Z,1013.76
2018-12-16T07:32:52.084Z,1013.79
2018-12-16T07:33:52.060Z,1013.87
2018-12-16T07:34:52.035Z,1013.88
2018-12-16T07:35:52.018Z,1013.93
2018-12-16T07:36:51.996Z,1013.91
2018-12-16T07:37:51.971Z,1013.94
2018-12-16T07:38:51.965Z,1013.81
2018-12-16T07:39:51.913Z,1013.80
2018-12-16T07:40:51.891Z,1013.73
2018-12-16T07:41:51.921Z,1013.74
2018-12-16T07:42:51.843Z,1013.74
2018-12-16T07:43:51.820Z,1013.72
2018-12-16T07:44:51.799Z,1013.70
2018-12-16T07:45:51.770Z,1013.70
2018-12-16T07:46:51.745Z,1013.70
2018-12-16T07:47:51.730Z,1013.69
2018-12-16T07:48:51.695Z,1013.72
2018-12-16T07:49:51.685Z,1013.71
2018-12-16T07:50:51.670Z,1013.70
2018-12-16T07:51:51.647Z,1013.72
2018-12-16T07:52:51.618Z,1013.74
2018-12-16T07:53:51.588Z,1013.73
2018-12-16T07:54:51.555Z,1013.77
2018-12-16T07:55:51.533Z,1013.74
2018-12-16T07:56:51.502Z,1013.74
2018-12-16T07:57:51.510Z,1013.69
2018-12-16T07:58:51.461Z,1013.71
2018-12-16T07:59:51.431Z,1013.71
2018-12-16T08:00:51.414Z,1013.73
2018-12-16T08:01:51.393Z,1013.67
2018-12-16T08:02:51.376Z,1013.71
2018-12-16T08:03:51.348Z,1013.67
2018-12-16T08:04:51.319Z,1013.70
2018-12-16T08:05:51.286Z,1013.69
2018-12-16T08:06:51.267Z,1013.64
2018-12-16T08:07:51.237Z,1013.60
2018-12-16T08:08:51.216Z,1013.64
2018-12-16T08:09:51.189Z,1013.57
2018-12-16T08:10:51.167Z,1013.56
2018-12-16T08:11:51.140Z,1013.52
2018-12-16T08:12:51.118Z,1013.47
2018-12-16T08:13:51.096Z,1013.48
2018-12-16T08:14:51.071Z,1013.51
2018-12-16T08:15:51.049Z,1013.47
2018-12-16T08:16:51.024Z,1013.46
2018-12-16T08:17:51.000Z,1013.43
2018-12-16T08:18:50.975Z,1013.43
2018-12-16T08:19:50.952Z,1013.44
2018-12-16T08:20:50.926Z,1013.47
2018-12-16T08:21:50.902Z,1013.43
2018-12-16T08:22:50.877Z,1013.43
2018-12-16T08:23:50.855Z,1013.41
2018-12-16T08:24:50.834Z,1013.42
2018-12-16T08:25:50.808Z,1013.39
2018-12-16T08:26:50.788Z,1013.46
2018-12-16T08:27:50.760Z,1013.40
2018-12-16T08:28:50.734Z,1013.42
2018-12-16T08:29:50.708Z,1013.44
2018-12-16T08:30:50.688Z,1013.40
2018-12-16T08:31:50.659Z,1013.36
2018-12-16T08:32:50.639Z,1013.37
2018-12-16T08:33:50.617Z,1013.32
2018-12-16T08:34:50.589Z,1013.34
2018-12-16T08:35:50.565Z,1013.30
2018-12-16T08:36:50.539Z,1013.30
2018-12-16T08:37:50.518Z,1013.30
2018-12-16T08:38:50.491Z,1013.32
2018-12-16T08:39:50.470Z,1013.33
2018-12-16T08:40:50.446Z,1013.36
2018-12-16T08:41:50.424Z,1013.39
2018-12-16T08:42:50.399Z,1013.40
2018-12-16T08:43:50.372Z,1013.40
2018-12-16T08:44:50.353Z,1013.39
2018-12-16T08:45:50.326Z,1013.37
2018-12-16T08:46:50.302Z,1013.35
2018-12-16T08:47:50.274Z,1013.39
2018-12-16T08:48:50.253Z,1013.38
2018-12-16T08:49:50.230Z,1013.40
2018-12-16T08:50:50.206Z,1013.36
2018-12-16T08:51:50.181Z,1013.40
2018-12-16T08:52:50.154Z,1013.38
2018-12-16T08:53:50.130Z,1013.41
2018-12-16T08:54:50.107Z,1013.38
2018-12-16T08:55:50.080Z,1013.41
2018-12-16T08:56:50.060Z,1013.44
2018-12-16T08:57:50.038Z,1013.40
2018-12-16T08:58:50.010Z,1013.42
2018-12-16T08:59:49.986Z,1013.44
2018-12-16T09:00:49.966Z,1013.44
2018-12-16T09:01:49.944Z,1013.42
2018-12-16T09:02:49.921Z,1013.41
2018-12-16T09:03:49.895Z,1013.41
2018-12-16T09:04:49.872Z,1013.43
2018-12-16T09:05:49.843Z,1013.45
2018-12-16T09:06:49.818Z,1013.44
2018-12-16T09:07:49.796Z,1013.39
2018-12-16T09:08:49.768Z,1013.39
2018-12-16T09:09:49.751Z,1013.35
2018-12-16T09:10:49.725Z,1013.35
2018-12-16T09:11:49.704Z,1013.33
2018-12-16T09:12:49.675Z,1013.34
2018-12-16T09:13:49.649Z,1013.30
2018-12-16T09:14:49.628Z,1013.22
2018-12-16T09:15:49.605Z,1013.21
2018-12-16T09:16:49.578Z,1013.19
2018-12-16T09:17:49.561Z,1013.21
2018-12-16T09:18:49.533Z,1013.25
2018-12-16T09:19:49.506Z,1013.22
2018-12-16T09:20:49.487Z,1013.19
2018-12-16T09:21:49.462Z,1013.13
2018-12-16T09:22:49.447Z,1013.17
2018-12-16T09:23:49.417Z,1013.15
2018-12-16T09:24:49.388Z,1013.14
2018-12-16T09:25:49.364Z,1013.12
2018-12-16T09:26:49.344Z,1013.10
2018-12-16T09:27:49.320Z,1013.10
2018-12-16T09:28:49.299Z,1013.07
2018-12-16T09:29:49.270Z,1013.07
2018-12-16T09:30:49.248Z,1013.04
2018-12-16T09:31:49.224Z,1013.00
2018-12-16T09:32:49.214Z,1012.97
2018-12-16T09:33:49.269Z,1012.95
2018-12-16T09:34:49.151Z,1012.93
2018-12-16T09:35:49.123Z,1012.93
2018-12-16T09:36:49.103Z,1012.89
2018-12-16T09:37:49.082Z,1012.86
2018-12-16T09:38:49.053Z,1012.88
2018-12-16T09:39:49.029Z,1012.90
2018-12-16T09:40:49.008Z,1012.83
2018-12-16T09:41:48.979Z,1012.81
2018-12-16T09:42:48.962Z,1012.81
2018-12-16T09:43:48.936Z,1012.80
2018-12-16T09:44:48.912Z,1012.76
2018-12-16T09:45:49.590Z,1012.79
2018-12-16T09:46:48.862Z,1012.77
2018-12-16T09:47:48.834Z,1012.78
2018-12-16T09:48:48.892Z,1012.79
2018-12-16T09:49:48.787Z,1012.69
2018-12-16T09:50:48.767Z,1012.71
2018-12-16T09:51:49.677Z,1012.65
2018-12-16T09:52:48.717Z,1012.69
2018-12-16T09:53:48.693Z,1012.68
2018-12-16T09:54:48.674Z,1012.62
2018-12-16T09:55:48.643Z,1012.58
2018-12-16T09:56:48.621Z,1012.62
2018-12-16T09:57:48.597Z,1012.65
2018-12-16T09:58:48.576Z,1012.62
2018-12-16T09:59:48.551Z,1012.57
2018-12-16T10:00:48.532Z,1012.55
2018-12-16T10:01:48.497Z,1012.53
2018-12-16T10:02:48.480Z,1012.52
2018-12-16T10:03:48.454Z,1012.44
2018-12-16T10:04:48.428Z,1012.49
2018-12-16T10:05:48.413Z,1012.45
2018-12-16T10:06:48.382Z,1012.42
2018-12-16T10:07:48.358Z,1012.44
2018-12-16T10:08:48.332Z,1012.43
2018-12-16T10:09:48.312Z,1012.43
2018-12-16T10:10:48.289Z,1012.38
2018-12-16T10:11:48.263Z,1012.37
2018-12-16T10:12:48.240Z,1012.33
2018-12-16T10:13:48.218Z,1012.37
2018-12-16T10:14:48.194Z,1012.34
2018-12-16T10:15:48.168Z,1012.31
2018-12-16T10:16:48.148Z,1012.26
2018-12-16T10:17:48.126Z,1012.25
2018-12-16T10:18:48.098Z,1012.22
2018-12-16T10:19:48.074Z,1012.21
2018-12-16T10:20:48.043Z,1012.26
2018-12-16T10:21:48.031Z,1012.31
2018-12-16T10:22:48.005Z,1012.26
2018-12-16T10:23:47.977Z,1012.28
2018-12-16T10:24:51.272Z,1012.30
2018-12-16T10:25:47.927Z,1012.28
2018-12-16T10:26:47.916Z,1012.31
2018-12-16T10:27:47.891Z,1012.30
2018-12-16T10:28:47.853Z,1012.29
2018-12-16T10:29:47.829Z,1012.30
2018-12-16T10:30:47.805Z,1012.29
2018-12-16T10:31:47.786Z,1012.29
2018-12-16T10:32:47.760Z,1012.34
2018-12-16T10:33:47.735Z,1012.27
2018-12-16T10:34:47.712Z,1012.27
2018-12-16T10:35:47.687Z,1012.21
2018-12-16T10:36:47.664Z,1012.27
2018-12-16T10:37:47.647Z,1012.22
2018-12-16T10:38:47.619Z,1012.24
2018-12-16T10:39:47.589Z,1012.22
2018-12-16T10:40:47.567Z,1012.16
2018-12-16T10:41:47.543Z,1012.19
2018-12-16T10:42:47.522Z,1012.15
2018-12-16T10:43:47.498Z,1012.14
2018-12-16T10:44:47.476Z,1012.12
2018-12-16T10:45:47.450Z,1012.14
2018-12-16T10:46:47.422Z,1012.09
2018-12-16T10:47:47.401Z,1012.10
2018-12-16T10:48:47.375Z,1012.00
2018-12-16T10:49:47.366Z,1012.00
2018-12-16T10:50:47.327Z,1012.08
2018-12-16T10:51:47.304Z,1012.03
2018-12-16T10:52:47.282Z,1012.01
2018-12-16T10:53:47.257Z,1012.01
2018-12-16T10:54:47.237Z,1011.99
2018-12-16T10:55:47.219Z,1011.99
2018-12-16T10:56:47.186Z,1011.95
2018-12-16T10:57:47.166Z,1011.94
2018-12-16T10:58:47.144Z,1012.03
2018-12-16T10:59:47.114Z,1011.94
2018-12-16T11:00:47.091Z,1012.00
2018-12-16T11:01:47.066Z,1011.98
2018-12-16T11:02:47.046Z,1011.90
2018-12-16T11:03:47.020Z,1011.86
2018-12-16T11:04:46.992Z,1011.85
2018-12-16T11:05:46.973Z,1011.87
2018-12-16T11:06:46.956Z,1011.86
2018-12-16T11:07:46.923Z,1011.88
2018-12-16T11:08:46.900Z,1011.85
2018-12-16T11:09:46.873Z,1011.83
2018-12-16T11:10:46.859Z,1011.79
2018-12-16T11:11:46.834Z,1011.73
2018-12-16T11:12:46.802Z,1011.71
2018-12-16T11:13:46.777Z,1011.74
2018-12-16T11:14:46.754Z,1011.68
2018-12-16T11:15:46.731Z,1011.72
2018-12-16T11:16:46.712Z,1011.68
2018-12-16T11:17:46.886Z,1011.68
2018-12-16T11:18:46.662Z,1011.69
2018-12-16T11:19:46.639Z,1011.66
2018-12-16T11:20:46.617Z,1011.66
2018-12-16T11:21:46.588Z,1011.63
2018-12-16T11:22:46.563Z,1011.62
2018-12-16T11:23:53.529Z,1011.61
2018-12-16T11:24:46.523Z,1011.61
2018-12-16T11:25:46.493Z,1011.56
2018-12-16T11:26:46.469Z,1011.59
2018-12-16T11:27:46.444Z,1011.59
2018-12-16T11:28:46.418Z,1011.57
2018-12-16T11:29:46.406Z,1011.58
2018-12-16T11:30:46.373Z,1011.64
2018-12-16T11:31:46.348Z,1011.53
2018-12-16T11:32:46.330Z,1011.58
2018-12-16T11:33:46.305Z,1011.49
2018-12-16T11:34:46.280Z,1011.48
2018-12-16T11:35:46.258Z,1011.46
2018-12-16T11:36:46.232Z,1011.47
2018-12-16T11:37:46.207Z,1011.49
2018-12-16T11:38:46.184Z,1011.54
2018-12-16T11:39:46.166Z,1011.51
2018-12-16T11:40:46.135Z,1011.46
2018-12-16T11:41:46.115Z,1011.41
2018-12-16T11:42:46.089Z,1011.34
2018-12-16T11:43:46.067Z,1011.36
2018-12-16T11:44:46.037Z,1011.36
2018-12-16T11:45:46.020Z,1011.37
2018-12-16T11:46:45.998Z,1011.37
2018-12-16T11:47:45.964Z,1011.35
2018-12-16T11:48:45.942Z,1011.35
2018-12-16T11:49:45.925Z,1011.28
2018-12-16T11:50:45.894Z,1011.34
2018-12-16T11:51:45.876Z,1011.30
2018-12-16T11:52:45.859Z,1011.25
2018-12-16T11:53:45.838Z,1011.23
2018-12-16T11:54:45.804Z,1011.25
2018-12-16T11:55:45.779Z,1011.25
2018-12-16T11:56:45.752Z,1011.29
2018-12-16T11:57:45.732Z,1011.23
2018-12-16T11:58:45.707Z,1011.19
2018-12-16T11:59:45.685Z,1011.17
2018-12-16T12:00:45.659Z,1011.14
2018-12-16T12:01:45.686Z,1011.21
2018-12-16T12:02:45.608Z,1011.17
2018-12-16T12:03:45.593Z,1011.15
2018-12-16T12:04:45.564Z,1011.12